Eagle San Antonio — 9V9330 — position and weather

sailwx.info

Track history (hours):
 
Tides and Currents Weather Stations Pressure Air Temp Water Temp Dewpoint Dewpoint Depression Visibility Wind Speed Wind Dir Waves Ship Positions

Eagle San Antonio

Last reported at 2016-Jun-19 11:26 UTC. Time now 2016-Jul-26 14:12 UTC.
Position N 15°14' W 019°30'.
Warning: this ship's position is 37 days out of date.

Length 274 m; draft 9.3 m.

Type: Ship. MMSI: 566453000.

Date/timePositionNaut miles runAvg speedWind from/ knotsBaromVisibWave heightAir tempDewpointWater temp
2016-Jun-19 11:26N 15°14' W 019°30'  
2016-Jun-17 07:22N 27°33' W 015°18'1315.8
2016-Jun-17 06:33N 27°44' W 015°11'1615.7
2016-Jun-17 05:33N 27°59' W 015°05'1615.6
2016-Jun-17 04:33N 28°14' W 014°59'1615.7
2016-Jun-17 03:34N 28°29' W 014°54'1515.4
2016-Jun-17 02:34N 28°44' W 014°49'1615.8
2016-Jun-17 01:33N 28°59' W 014°44'  
2016-Jun-13 06:29N 49°34' W 004°03'1314.4
2016-Jun-13 05:33N 49°41' W 003°45'1414.5
2016-Jun-13 04:33N 49°48' W 003°25'1413.8
2016-Jun-13 03:34N 49°54' W 003°06'1313.1
2016-Jun-13 02:33N 49°60' W 002°48'1212.5
2016-Jun-13 01:34N 50°03' W 002°30'4412.8
2016-Jun-12 22:07N 50°15' W 001°24'1615.2
2016-Jun-12 21:05N 50°19' W 000°60'816.0
2016-Jun-12 20:33N 50°22' W 000°47'1515.3
2016-Jun-12 19:34N 50°26' W 000°24'1514.7
2016-Jun-12 18:33N 50°30' W 000°02'1414.2
2016-Jun-12 17:33N 50°34' E 000°20'1313.5
2016-Jun-12 16:34N 50°39' E 000°40'1813.2
2016-Jun-12 15:11N 50°48' E 001°04'813.5
2016-Jun-12 14:33N 50°53' E 001°14'1515.2
2016-Jun-12 13:33N 51°04' E 001°32'1616.1
2016-Jun-12 12:33N 51°16' E 001°48'1515.4
2016-Jun-12 11:33N 51°29' E 002°01'1414.1
2016-Jun-12 10:33N 51°40' E 002°16'1413.6
2016-Jun-12 09:33N 51°50' E 002°32'1313.3
2016-Jun-12 08:32N 51°59' E 002°48'1713.1
2016-Jun-12 07:15N 52°02' E 003°15'1013.3
2016-Jun-12 06:28N 52°04' E 003°32'2312.1
2016-Jun-12 04:33N 51°58' E 004°08'4 3.7
2016-Jun-12 03:33N 51°55' E 004°12'0 0.0
2016-Jun-12 02:33N 51°55' E 004°12'0 0.0
2016-Jun-12 01:33N 51°55' E 004°12'0 0.0
2016-Jun-12 00:33N 51°55' E 004°12'0 0.0
2016-Jun-11 23:33N 51°55' E 004°12'0 0.0
2016-Jun-11 22:30N 51°55' E 004°12'0 0.0
2016-Jun-11 21:33N 51°55' E 004°12'0 0.0
2016-Jun-11 20:33N 51°55' E 004°12'0 0.0
2016-Jun-11 19:33N 51°55' E 004°12'0 0.0
2016-Jun-11 18:33N 51°55' E 004°12'0 0.0
2016-Jun-11 17:33N 51°55' E 004°12'0 0.0
2016-Jun-11 16:27N 51°55' E 004°12'0 0.0
2016-Jun-11 15:33N 51°55' E 004°12'0 0.0
2016-Jun-11 14:33N 51°55' E 004°12'0 0.0
2016-Jun-11 13:33N 51°55' E 004°12'0 0.0
2016-Jun-11 12:27N 51°55' E 004°12'0 0.0
2016-Jun-11 11:15N 51°55' E 004°12'0 0.0
2016-Jun-11 10:30N 51°55' E 004°12'0 0.0
2016-Jun-11 09:33N 51°55' E 004°12'0 0.0
2016-Jun-11 08:33N 51°55' E 004°12'0 0.0
2016-Jun-11 07:33N 51°55' E 004°12'0 0.0
2016-Jun-11 06:33N 51°55' E 004°12'0 0.0
2016-Jun-11 05:33N 51°55' E 004°12'0 0.0
2016-Jun-11 04:33N 51°55' E 004°12'0 0.0
2016-Jun-11 03:33N 51°55' E 004°12'0 0.0
2016-Jun-11 02:33N 51°55' E 004°12'0 0.0
2016-Jun-11 01:33N 51°55' E 004°12'0 0.0
2016-Jun-11 00:27N 51°55' E 004°12'0 0.0
2016-Jun-10 23:33N 51°55' E 004°12'0 0.0
2016-Jun-10 22:33N 51°55' E 004°12'0 0.0
2016-Jun-10 21:15N 51°55' E 004°12'0 0.0
2016-Jun-10 20:33N 51°55' E 004°12'0 0.0
2016-Jun-10 19:34N 51°55' E 004°12'1 0.7
2016-Jun-10 18:33N 51°56' E 004°12'7 7.1
2016-Jun-10 17:34N 51°60' E 004°02'1111.3
2016-Jun-10 16:34N 52°01' E 003°44'10 9.6
2016-Jun-10 15:34N 51°60' E 003°28'1312.5
2016-Jun-10 14:34N 51°58' E 003°08'1211.8
2016-Jun-10 13:34N 51°55' E 002°50'1111.0
2016-Jun-10 12:34N 51°47' E 002°37'1110.6
2016-Jun-10 11:34N 51°39' E 002°26'1110.5
2016-Jun-10 10:34N 51°31' E 002°14'1111.2
2016-Jun-10 09:34N 51°23' E 002°02'1211.5
2016-Jun-10 08:34N 51°14' E 001°50'1211.9
2016-Jun-10 07:34N 51°05' E 001°39'1212.3
2016-Jun-10 06:34N 50°54' E 001°28'1313.0
2016-Jun-10 05:34N 50°42' E 001°22'1313.0
2016-Jun-10 04:33N 50°34' E 001°06'1312.5
2016-Jun-10 03:30N 50°28' E 000°47'1212.8
2016-Jun-10 02:32N 50°25' E 000°28'1313.4
2016-Jun-10 01:33N 50°21' E 000°09'1414.3
2016-Jun-10 00:34N 50°17' W 000°13'1515.0
2016-Jun-09 23:33N 50°13' W 000°35'1515.4
2016-Jun-09 22:33N 50°09' W 000°59'1515.1
2016-Jun-09 21:34N 50°08' W 001°22'1413.6
2016-Jun-09 20:34N 50°09' W 001°43'1312.9
2016-Jun-09 19:34N 50°15' W 002°01'1211.8
2016-Jun-09 18:34N 50°17' W 002°19'1110.8
2016-Jun-09 17:33N 50°18' W 002°36'1110.8
2016-Jun-09 16:34N 50°19' W 002°53'1211.6
2016-Jun-09 15:34N 50°21' W 003°10'10 9.5
2016-Jun-09 14:34N 50°24' W 003°25'8 8.1
2016-Jun-09 13:33N 50°17' W 003°20'1111.4
2016-Jun-09 12:34N 50°06' W 003°28'1313.1
2016-Jun-09 11:34N 49°57' W 003°41'  
Track history (hours):
 
Tides and Currents Weather Stations Pressure Air Temp Water Temp Dewpoint Dewpoint Depression Visibility Wind Speed Wind Dir Waves Ship Positions

Eagle San Antonio

Last reported at 2016-Jun-19 11:26 UTC. Time now 2016-Jul-26 14:12 UTC.
Position N 15°14' W 019°30'.
Warning: this ship's position is 37 days out of date.

Length 274 m; draft 9.3 m.

Type: Ship. MMSI: 566453000.

Date/timePositionNaut miles runAvg speedWind from/ knotsBaromVisibWave heightAir tempDewpointWater temp
2016-Jun-19 11:26N 15°14' W 019°30'  
2016-Jun-17 07:22N 27°33' W 015°18'1315.8
2016-Jun-17 06:33N 27°44' W 015°11'1615.7
2016-Jun-17 05:33N 27°59' W 015°05'1615.6
2016-Jun-17 04:33N 28°14' W 014°59'1615.7
2016-Jun-17 03:34N 28°29' W 014°54'1515.4
2016-Jun-17 02:34N 28°44' W 014°49'1615.8
2016-Jun-17 01:33N 28°59' W 014°44'  
2016-Jun-13 06:29N 49°34' W 004°03'1314.4
2016-Jun-13 05:33N 49°41' W 003°45'1414.5
2016-Jun-13 04:33N 49°48' W 003°25'1413.8
2016-Jun-13 03:34N 49°54' W 003°06'1313.1
2016-Jun-13 02:33N 49°60' W 002°48'1212.5
2016-Jun-13 01:34N 50°03' W 002°30'4412.8
2016-Jun-12 22:07N 50°15' W 001°24'1615.2
2016-Jun-12 21:05N 50°19' W 000°60'816.0
2016-Jun-12 20:33N 50°22' W 000°47'1515.3
2016-Jun-12 19:34N 50°26' W 000°24'1514.7
2016-Jun-12 18:33N 50°30' W 000°02'1414.2
2016-Jun-12 17:33N 50°34' E 000°20'1313.5
2016-Jun-12 16:34N 50°39' E 000°40'1813.2
2016-Jun-12 15:11N 50°48' E 001°04'813.5
2016-Jun-12 14:33N 50°53' E 001°14'1515.2
2016-Jun-12 13:33N 51°04' E 001°32'1616.1
2016-Jun-12 12:33N 51°16' E 001°48'1515.4
2016-Jun-12 11:33N 51°29' E 002°01'1414.1
2016-Jun-12 10:33N 51°40' E 002°16'1413.6
2016-Jun-12 09:33N 51°50' E 002°32'1313.3
2016-Jun-12 08:32N 51°59' E 002°48'1713.1
2016-Jun-12 07:15N 52°02' E 003°15'1013.3
2016-Jun-12 06:28N 52°04' E 003°32'2312.1
2016-Jun-12 04:33N 51°58' E 004°08'4 3.7
2016-Jun-12 03:33N 51°55' E 004°12'0 0.0
2016-Jun-12 02:33N 51°55' E 004°12'0 0.0
2016-Jun-12 01:33N 51°55' E 004°12'0 0.0
2016-Jun-12 00:33N 51°55' E 004°12'0 0.0
2016-Jun-11 23:33N 51°55' E 004°12'0 0.0
2016-Jun-11 22:30N 51°55' E 004°12'0 0.0
2016-Jun-11 21:33N 51°55' E 004°12'0 0.0
2016-Jun-11 20:33N 51°55' E 004°12'0 0.0
2016-Jun-11 19:33N 51°55' E 004°12'0 0.0
2016-Jun-11 18:33N 51°55' E 004°12'0 0.0
2016-Jun-11 17:33N 51°55' E 004°12'0 0.0
2016-Jun-11 16:27N 51°55' E 004°12'0 0.0
2016-Jun-11 15:33N 51°55' E 004°12'0 0.0
2016-Jun-11 14:33N 51°55' E 004°12'0 0.0
2016-Jun-11 13:33N 51°55' E 004°12'0 0.0
2016-Jun-11 12:27N 51°55' E 004°12'0 0.0
2016-Jun-11 11:15N 51°55' E 004°12'0 0.0
2016-Jun-11 10:30N 51°55' E 004°12'0 0.0
2016-Jun-11 09:33N 51°55' E 004°12'0 0.0
2016-Jun-11 08:33N 51°55' E 004°12'0 0.0
2016-Jun-11 07:33N 51°55' E 004°12'0 0.0
2016-Jun-11 06:33N 51°55' E 004°12'0 0.0
2016-Jun-11 05:33N 51°55' E 004°12'0 0.0
2016-Jun-11 04:33N 51°55' E 004°12'0 0.0
2016-Jun-11 03:33N 51°55' E 004°12'0 0.0
2016-Jun-11 02:33N 51°55' E 004°12'0 0.0
2016-Jun-11 01:33N 51°55' E 004°12'0 0.0
2016-Jun-11 00:27N 51°55' E 004°12'0 0.0
2016-Jun-10 23:33N 51°55' E 004°12'0 0.0
2016-Jun-10 22:33N 51°55' E 004°12'0 0.0
2016-Jun-10 21:15N 51°55' E 004°12'0 0.0
2016-Jun-10 20:33N 51°55' E 004°12'0 0.0
2016-Jun-10 19:34N 51°55' E 004°12'1 0.7
2016-Jun-10 18:33N 51°56' E 004°12'7 7.1
2016-Jun-10 17:34N 51°60' E 004°02'1111.3
2016-Jun-10 16:34N 52°01' E 003°44'10 9.6
2016-Jun-10 15:34N 51°60' E 003°28'1312.5
2016-Jun-10 14:34N 51°58' E 003°08'1211.8
2016-Jun-10 13:34N 51°55' E 002°50'1111.0
2016-Jun-10 12:34N 51°47' E 002°37'1110.6
2016-Jun-10 11:34N 51°39' E 002°26'1110.5
2016-Jun-10 10:34N 51°31' E 002°14'1111.2
2016-Jun-10 09:34N 51°23' E 002°02'1211.5
2016-Jun-10 08:34N 51°14' E 001°50'1211.9
2016-Jun-10 07:34N 51°05' E 001°39'1212.3
2016-Jun-10 06:34N 50°54' E 001°28'1313.0
2016-Jun-10 05:34N 50°42' E 001°22'1313.0
2016-Jun-10 04:33N 50°34' E 001°06'1312.5
2016-Jun-10 03:30N 50°28' E 000°47'1212.8
2016-Jun-10 02:32N 50°25' E 000°28'1313.4
2016-Jun-10 01:33N 50°21' E 000°09'1414.3
2016-Jun-10 00:34N 50°17' W 000°13'1515.0
2016-Jun-09 23:33N 50°13' W 000°35'1515.4
2016-Jun-09 22:33N 50°09' W 000°59'1515.1
2016-Jun-09 21:34N 50°08' W 001°22'1413.6
2016-Jun-09 20:34N 50°09' W 001°43'1312.9
2016-Jun-09 19:34N 50°15' W 002°01'1211.8
2016-Jun-09 18:34N 50°17' W 002°19'1110.8
2016-Jun-09 17:33N 50°18' W 002°36'1110.8
2016-Jun-09 16:34N 50°19' W 002°53'1211.6
2016-Jun-09 15:34N 50°21' W 003°10'10 9.5
2016-Jun-09 14:34N 50°24' W 003°25'8 8.1
2016-Jun-09 13:33N 50°17' W 003°20'1111.4
2016-Jun-09 12:34N 50°06' W 003°28'1313.1
2016-Jun-09 11:34N 49°57' W 003°41'  

Dump ship's entire track history